sensor_id;sensor_type;location;lat;lon;timestamp;P1;durP1;ratioP1;P2;durP2;ratioP2
10509;SDS011;5303;53.266;10.410;2023-11-19T00:01:25;8.77;;;5.80;;
10509;SDS011;5303;53.266;10.410;2023-11-19T00:03:51;7.43;;;5.00;;
10509;SDS011;5303;53.266;10.410;2023-11-19T00:06:16;5.90;;;4.53;;
10509;SDS011;5303;53.266;10.410;2023-11-19T00:08:41;4.73;;;4.10;;
10509;SDS011;5303;53.266;10.410;2023-11-19T00:11:08;7.33;;;4.27;;
10509;SDS011;5303;53.266;10.410;2023-11-19T00:13:33;5.07;;;4.00;;
10509;SDS011;5303;53.266;10.410;2023-11-19T00:15:59;5.00;;;3.83;;
10509;SDS011;5303;53.266;10.410;2023-11-19T00:18:24;5.23;;;3.60;;
10509;SDS011;5303;53.266;10.410;2023-11-19T00:20:49;5.17;;;3.60;;
10509;SDS011;5303;53.266;10.410;2023-11-19T00:23:14;7.03;;;5.00;;
10509;SDS011;5303;53.266;10.410;2023-11-19T00:25:40;3.57;;;3.17;;
10509;SDS011;5303;53.266;10.410;2023-11-19T00:28:05;4.17;;;3.73;;
10509;SDS011;5303;53.266;10.410;2023-11-19T00:30:31;5.23;;;3.70;;
10509;SDS011;5303;53.266;10.410;2023-11-19T00:32:56;5.47;;;3.27;;
10509;SDS011;5303;53.266;10.410;2023-11-19T00:35:21;5.13;;;3.70;;
10509;SDS011;5303;53.266;10.410;2023-11-19T00:37:46;5.30;;;3.37;;
10509;SDS011;5303;53.266;10.410;2023-11-19T00:40:12;4.70;;;3.43;;
10509;SDS011;5303;53.266;10.410;2023-11-19T00:42:40;4.93;;;3.03;;
10509;SDS011;5303;53.266;10.410;2023-11-19T00:45:06;4.50;;;3.10;;
10509;SDS011;5303;53.266;10.410;2023-11-19T00:47:34;4.27;;;3.40;;
10509;SDS011;5303;53.266;10.410;2023-11-19T00:50:00;6.77;;;3.67;;
10509;SDS011;5303;53.266;10.410;2023-11-19T00:52:25;3.63;;;3.20;;
10509;SDS011;5303;53.266;10.410;2023-11-19T00:54:50;5.17;;;3.20;;
10509;SDS011;5303;53.266;10.410;2023-11-19T00:57:16;3.97;;;2.90;;
10509;SDS011;5303;53.266;10.410;2023-11-19T00:59:42;4.60;;;3.50;;
10509;SDS011;5303;53.266;10.410;2023-11-19T01:02:07;3.87;;;3.47;;
10509;SDS011;5303;53.266;10.410;2023-11-19T01:04:33;4.13;;;3.07;;
10509;SDS011;5303;53.266;10.410;2023-11-19T01:07:02;4.73;;;3.73;;
10509;SDS011;5303;53.266;10.410;2023-11-19T01:09:34;4.10;;;2.80;;
10509;SDS011;5303;53.266;10.410;2023-11-19T01:12:03;4.73;;;3.37;;
10509;SDS011;5303;53.266;10.410;2023-11-19T01:14:28;4.30;;;3.33;;
10509;SDS011;5303;53.266;10.410;2023-11-19T01:16:54;4.70;;;3.63;;
10509;SDS011;5303;53.266;10.410;2023-11-19T01:19:21;4.77;;;3.30;;
10509;SDS011;5303;53.266;10.410;2023-11-19T01:21:47;3.80;;;3.13;;
10509;SDS011;5303;53.266;10.410;2023-11-19T01:24:12;4.33;;;3.23;;
10509;SDS011;5303;53.266;10.410;2023-11-19T01:26:39;3.83;;;2.80;;
10509;SDS011;5303;53.266;10.410;2023-11-19T01:29:10;3.50;;;2.57;;
10509;SDS011;5303;53.266;10.410;2023-11-19T01:31:35;3.13;;;2.80;;
10509;SDS011;5303;53.266;10.410;2023-11-19T01:34:02;3.10;;;2.50;;
10509;SDS011;5303;53.266;10.410;2023-11-19T01:36:27;4.03;;;2.53;;
10509;SDS011;5303;53.266;10.410;2023-11-19T01:38:53;3.83;;;2.17;;
10509;SDS011;5303;53.266;10.410;2023-11-19T01:41:18;2.67;;;2.37;;
10509;SDS011;5303;53.266;10.410;2023-11-19T01:43:43;3.47;;;2.70;;
10509;SDS011;5303;53.266;10.410;2023-11-19T01:46:12;3.60;;;2.50;;
10509;SDS011;5303;53.266;10.410;2023-11-19T01:48:41;4.37;;;2.80;;
10509;SDS011;5303;53.266;10.410;2023-11-19T01:51:09;3.63;;;2.70;;
10509;SDS011;5303;53.266;10.410;2023-11-19T01:53:35;4.40;;;3.10;;
10509;SDS011;5303;53.266;10.410;2023-11-19T01:56:03;4.23;;;2.90;;
10509;SDS011;5303;53.266;10.410;2023-11-19T01:58:29;3.03;;;2.73;;
10509;SDS011;5303;53.266;10.410;2023-11-19T02:00:56;3.33;;;3.03;;
10509;SDS011;5303;53.266;10.410;2023-11-19T02:03:21;4.57;;;3.30;;
10509;SDS011;5303;53.266;10.410;2023-11-19T02:05:50;4.50;;;3.43;;
10509;SDS011;5303;53.266;10.410;2023-11-19T02:08:18;4.53;;;3.83;;
10509;SDS011;5303;53.266;10.410;2023-11-19T02:10:44;4.27;;;3.70;;
10509;SDS011;5303;53.266;10.410;2023-11-19T02:13:09;4.73;;;3.80;;
10509;SDS011;5303;53.266;10.410;2023-11-19T02:15:35;3.70;;;3.30;;
10509;SDS011;5303;53.266;10.410;2023-11-19T02:18:19;4.57;;;3.93;;
10509;SDS011;5303;53.266;10.410;2023-11-19T02:20:47;5.40;;;3.90;;
10509;SDS011;5303;53.266;10.410;2023-11-19T02:23:14;4.73;;;3.90;;
10509;SDS011;5303;53.266;10.410;2023-11-19T02:25:39;5.47;;;3.77;;
10509;SDS011;5303;53.266;10.410;2023-11-19T02:28:05;4.27;;;3.50;;
10509;SDS011;5303;53.266;10.410;2023-11-19T02:30:31;4.57;;;3.57;;
10509;SDS011;5303;53.266;10.410;2023-11-19T02:32:57;4.93;;;4.00;;
10509;SDS011;5303;53.266;10.410;2023-11-19T02:35:27;4.40;;;3.97;;
10509;SDS011;5303;53.266;10.410;2023-11-19T02:37:54;4.10;;;3.00;;
10509;SDS011;5303;53.266;10.410;2023-11-19T02:40:19;3.90;;;3.47;;
10509;SDS011;5303;53.266;10.410;2023-11-19T02:42:45;4.03;;;3.50;;
10509;SDS011;5303;53.266;10.410;2023-11-19T02:45:10;4.17;;;3.70;;
10509;SDS011;5303;53.266;10.410;2023-11-19T02:47:39;4.27;;;3.80;;
10509;SDS011;5303;53.266;10.410;2023-11-19T02:50:04;4.07;;;3.67;;
10509;SDS011;5303;53.266;10.410;2023-11-19T02:52:32;4.10;;;3.70;;
10509;SDS011;5303;53.266;10.410;2023-11-19T02:55:02;4.53;;;3.50;;
10509;SDS011;5303;53.266;10.410;2023-11-19T02:57:30;4.20;;;3.60;;
10509;SDS011;5303;53.266;10.410;2023-11-19T02:59:57;5.37;;;3.97;;
10509;SDS011;5303;53.266;10.410;2023-11-19T03:02:23;4.90;;;3.87;;
10509;SDS011;5303;53.266;10.410;2023-11-19T03:04:51;4.90;;;4.10;;
10509;SDS011;5303;53.266;10.410;2023-11-19T03:07:16;4.83;;;3.40;;
10509;SDS011;5303;53.266;10.410;2023-11-19T03:09:42;4.97;;;3.63;;
10509;SDS011;5303;53.266;10.410;2023-11-19T03:12:09;3.87;;;3.20;;
10509;SDS011;5303;53.266;10.410;2023-11-19T03:14:34;3.07;;;2.77;;
10509;SDS011;5303;53.266;10.410;2023-11-19T03:16:59;3.00;;;2.70;;
10509;SDS011;5303;53.266;10.410;2023-11-19T03:19:25;3.43;;;2.70;;
10509;SDS011;5303;53.266;10.410;2023-11-19T03:21:51;3.20;;;2.70;;
10509;SDS011;5303;53.266;10.410;2023-11-19T03:24:17;3.10;;;2.60;;
10509;SDS011;5303;53.266;10.410;2023-11-19T03:26:42;2.60;;;2.40;;
10509;SDS011;5303;53.266;10.410;2023-11-19T03:29:07;3.00;;;2.03;;
10509;SDS011;5303;53.266;10.410;2023-11-19T03:31:33;2.47;;;2.27;;
10509;SDS011;5303;53.266;10.410;2023-11-19T03:33:58;2.00;;;1.80;;
10509;SDS011;5303;53.266;10.410;2023-11-19T03:36:23;2.10;;;1.90;;
10509;SDS011;5303;53.266;10.410;2023-11-19T03:38:49;2.97;;;1.90;;
10509;SDS011;5303;53.266;10.410;2023-11-19T03:41:14;2.80;;;1.77;;
10509;SDS011;5303;53.266;10.410;2023-11-19T03:43:40;1.93;;;1.67;;
10509;SDS011;5303;53.266;10.410;2023-11-19T03:46:18;1.93;;;1.73;;
10509;SDS011;5303;53.266;10.410;2023-11-19T03:48:44;1.90;;;1.60;;
10509;SDS011;5303;53.266;10.410;2023-11-19T03:51:11;2.00;;;1.77;;
10509;SDS011;5303;53.266;10.410;2023-11-19T03:53:40;1.70;;;1.60;;
10509;SDS011;5303;53.266;10.410;2023-11-19T03:56:06;1.70;;;1.60;;
10509;SDS011;5303;53.266;10.410;2023-11-19T03:58:34;2.17;;;1.97;;
10509;SDS011;5303;53.266;10.410;2023-11-19T04:00:59;2.00;;;1.83;;
10509;SDS011;5303;53.266;10.410;2023-11-19T04:03:25;1.93;;;1.60;;
10509;SDS011;5303;53.266;10.410;2023-11-19T04:05:50;1.60;;;1.50;;
10509;SDS011;5303;53.266;10.410;2023-11-19T04:08:16;1.93;;;1.73;;
10509;SDS011;5303;53.266;10.410;2023-11-19T04:10:41;1.70;;;1.40;;
10509;SDS011;5303;53.266;10.410;2023-11-19T04:13:06;2.10;;;1.90;;
10509;SDS011;5303;53.266;10.410;2023-11-19T04:15:31;2.73;;;1.70;;
10509;SDS011;5303;53.266;10.410;2023-11-19T04:17:57;1.77;;;1.67;;
10509;SDS011;5303;53.266;10.410;2023-11-19T04:20:22;1.80;;;1.57;;
10509;SDS011;5303;53.266;10.410;2023-11-19T04:22:47;2.60;;;2.10;;
10509;SDS011;5303;53.266;10.410;2023-11-19T04:25:16;1.83;;;1.73;;
10509;SDS011;5303;53.266;10.410;2023-11-19T04:27:41;3.97;;;1.80;;
10509;SDS011;5303;53.266;10.410;2023-11-19T04:30:07;3.00;;;2.03;;
10509;SDS011;5303;53.266;10.410;2023-11-19T04:32:35;3.63;;;1.80;;
10509;SDS011;5303;53.266;10.410;2023-11-19T04:35:00;4.53;;;2.10;;
10509;SDS011;5303;53.266;10.410;2023-11-19T04:37:25;3.17;;;2.20;;
10509;SDS011;5303;53.266;10.410;2023-11-19T04:39:51;3.03;;;2.63;;
10509;SDS011;5303;53.266;10.410;2023-11-19T04:42:16;2.63;;;2.40;;
10509;SDS011;5303;53.266;10.410;2023-11-19T04:44:42;3.90;;;2.83;;
10509;SDS011;5303;53.266;10.410;2023-11-19T04:47:08;3.50;;;3.10;;
10509;SDS011;5303;53.266;10.410;2023-11-19T04:49:33;3.50;;;2.70;;
10509;SDS011;5303;53.266;10.410;2023-11-19T04:51:58;4.33;;;2.80;;
10509;SDS011;5303;53.266;10.410;2023-11-19T04:54:24;3.33;;;3.03;;
10509;SDS011;5303;53.266;10.410;2023-11-19T04:56:49;4.40;;;3.20;;
10509;SDS011;5303;53.266;10.410;2023-11-19T04:59:14;3.83;;;3.43;;
10509;SDS011;5303;53.266;10.410;2023-11-19T05:01:40;4.13;;;3.73;;
10509;SDS011;5303;53.266;10.410;2023-11-19T05:04:06;4.63;;;3.90;;
10509;SDS011;5303;53.266;10.410;2023-11-19T05:06:32;6.80;;;4.50;;
10509;SDS011;5303;53.266;10.410;2023-11-19T05:08:58;5.93;;;4.67;;
10509;SDS011;5303;53.266;10.410;2023-11-19T05:11:29;4.83;;;4.33;;
10509;SDS011;5303;53.266;10.410;2023-11-19T05:13:55;5.83;;;5.10;;
10509;SDS011;5303;53.266;10.410;2023-11-19T05:16:20;6.83;;;5.07;;
10509;SDS011;5303;53.266;10.410;2023-11-19T05:18:46;8.87;;;5.27;;
10509;SDS011;5303;53.266;10.410;2023-11-19T05:21:11;7.03;;;5.77;;
10509;SDS011;5303;53.266;10.410;2023-11-19T05:23:37;8.50;;;6.33;;
10509;SDS011;5303;53.266;10.410;2023-11-19T05:26:04;9.07;;;6.23;;
10509;SDS011;5303;53.266;10.410;2023-11-19T05:28:30;7.43;;;5.73;;
10509;SDS011;5303;53.266;10.410;2023-11-19T05:30:55;10.37;;;6.77;;
10509;SDS011;5303;53.266;10.410;2023-11-19T05:33:21;10.90;;;7.43;;
10509;SDS011;5303;53.266;10.410;2023-11-19T05:35:46;9.63;;;7.63;;
10509;SDS011;5303;53.266;10.410;2023-11-19T05:38:11;9.50;;;7.80;;
10509;SDS011;5303;53.266;10.410;2023-11-19T05:40:36;10.13;;;7.53;;
10509;SDS011;5303;53.266;10.410;2023-11-19T05:43:03;12.43;;;8.50;;
10509;SDS011;5303;53.266;10.410;2023-11-19T05:45:29;11.73;;;7.87;;
10509;SDS011;5303;53.266;10.410;2023-11-19T05:47:54;13.63;;;8.70;;
10509;SDS011;5303;53.266;10.410;2023-11-19T05:50:19;12.57;;;8.87;;
10509;SDS011;5303;53.266;10.410;2023-11-19T05:52:45;13.50;;;9.17;;
10509;SDS011;5303;53.266;10.410;2023-11-19T05:55:11;13.27;;;9.30;;
10509;SDS011;5303;53.266;10.410;2023-11-19T05:57:37;16.10;;;9.97;;
10509;SDS011;5303;53.266;10.410;2023-11-19T06:00:02;13.97;;;9.90;;
10509;SDS011;5303;53.266;10.410;2023-11-19T06:02:32;16.53;;;10.07;;
10509;SDS011;5303;53.266;10.410;2023-11-19T06:04:57;13.40;;;9.40;;
10509;SDS011;5303;53.266;10.410;2023-11-19T06:07:23;12.93;;;9.80;;
10509;SDS011;5303;53.266;10.410;2023-11-19T06:09:48;13.30;;;9.17;;
10509;SDS011;5303;53.266;10.410;2023-11-19T06:12:13;17.07;;;10.03;;
10509;SDS011;5303;53.266;10.410;2023-11-19T06:14:39;14.77;;;9.13;;
10509;SDS011;5303;53.266;10.410;2023-11-19T06:17:05;16.03;;;9.77;;
10509;SDS011;5303;53.266;10.410;2023-11-19T06:19:30;15.90;;;10.13;;
10509;SDS011;5303;53.266;10.410;2023-11-19T06:21:55;13.33;;;9.57;;
10509;SDS011;5303;53.266;10.410;2023-11-19T06:24:21;18.67;;;11.30;;
10509;SDS011;5303;53.266;10.410;2023-11-19T06:26:46;14.20;;;9.50;;
10509;SDS011;5303;53.266;10.410;2023-11-19T06:29:11;16.67;;;10.33;;
10509;SDS011;5303;53.266;10.410;2023-11-19T06:31:36;15.80;;;9.47;;
10509;SDS011;5303;53.266;10.410;2023-11-19T06:34:05;15.97;;;9.87;;
10509;SDS011;5303;53.266;10.410;2023-11-19T06:36:32;19.77;;;10.83;;
10509;SDS011;5303;53.266;10.410;2023-11-19T06:38:57;20.80;;;11.27;;
10509;SDS011;5303;53.266;10.410;2023-11-19T06:41:22;21.97;;;10.57;;
10509;SDS011;5303;53.266;10.410;2023-11-19T06:43:48;17.73;;;11.27;;
10509;SDS011;5303;53.266;10.410;2023-11-19T06:46:17;16.77;;;10.83;;
10509;SDS011;5303;53.266;10.410;2023-11-19T06:48:43;24.23;;;10.20;;
10509;SDS011;5303;53.266;10.410;2023-11-19T06:51:09;21.43;;;10.73;;
10509;SDS011;5303;53.266;10.410;2023-11-19T06:53:34;25.93;;;10.73;;
10509;SDS011;5303;53.266;10.410;2023-11-19T06:56:00;27.87;;;11.10;;
10509;SDS011;5303;53.266;10.410;2023-11-19T06:58:28;25.50;;;11.10;;
10509;SDS011;5303;53.266;10.410;2023-11-19T07:00:53;24.63;;;11.50;;
10509;SDS011;5303;53.266;10.410;2023-11-19T07:03:18;26.20;;;11.07;;
10509;SDS011;5303;53.266;10.410;2023-11-19T07:05:45;29.27;;;11.77;;
10509;SDS011;5303;53.266;10.410;2023-11-19T07:08:10;28.50;;;11.97;;
10509;SDS011;5303;53.266;10.410;2023-11-19T07:10:36;29.27;;;11.00;;
10509;SDS011;5303;53.266;10.410;2023-11-19T07:13:01;28.30;;;10.80;;
10509;SDS011;5303;53.266;10.410;2023-11-19T07:15:27;32.03;;;11.90;;
10509;SDS011;5303;53.266;10.410;2023-11-19T07:17:52;27.10;;;11.43;;
10509;SDS011;5303;53.266;10.410;2023-11-19T07:20:19;27.83;;;10.57;;
10509;SDS011;5303;53.266;10.410;2023-11-19T07:22:44;25.13;;;10.53;;
10509;SDS011;5303;53.266;10.410;2023-11-19T07:25:12;32.83;;;10.87;;
10509;SDS011;5303;53.266;10.410;2023-11-19T07:27:38;25.57;;;9.77;;
10509;SDS011;5303;53.266;10.410;2023-11-19T07:30:04;25.83;;;11.00;;
10509;SDS011;5303;53.266;10.410;2023-11-19T07:32:32;24.57;;;10.43;;
10509;SDS011;5303;53.266;10.410;2023-11-19T07:34:58;22.43;;;9.60;;
10509;SDS011;5303;53.266;10.410;2023-11-19T07:37:23;23.73;;;9.17;;
10509;SDS011;5303;53.266;10.410;2023-11-19T07:39:48;22.57;;;9.27;;
10509;SDS011;5303;53.266;10.410;2023-11-19T07:42:14;25.87;;;9.50;;
10509;SDS011;5303;53.266;10.410;2023-11-19T07:44:39;27.47;;;9.90;;
10509;SDS011;5303;53.266;10.410;2023-11-19T07:47:04;24.43;;;9.07;;
10509;SDS011;5303;53.266;10.410;2023-11-19T07:49:30;26.03;;;8.27;;
10509;SDS011;5303;53.266;10.410;2023-11-19T07:51:55;22.17;;;7.97;;
10509;SDS011;5303;53.266;10.410;2023-11-19T07:54:21;30.63;;;8.60;;
10509;SDS011;5303;53.266;10.410;2023-11-19T07:56:46;20.93;;;7.47;;
10509;SDS011;5303;53.266;10.410;2023-11-19T07:59:12;22.50;;;7.23;;
10509;SDS011;5303;53.266;10.410;2023-11-19T08:01:37;20.67;;;6.93;;
10509;SDS011;5303;53.266;10.410;2023-11-19T08:04:02;23.60;;;6.07;;
10509;SDS011;5303;53.266;10.410;2023-11-19T08:06:28;21.30;;;6.10;;
10509;SDS011;5303;53.266;10.410;2023-11-19T08:08:53;26.67;;;6.63;;
10509;SDS011;5303;53.266;10.410;2023-11-19T08:11:18;22.13;;;6.47;;
10509;SDS011;5303;53.266;10.410;2023-11-19T08:13:47;17.70;;;6.10;;
10509;SDS011;5303;53.266;10.410;2023-11-19T08:16:12;19.57;;;6.00;;
10509;SDS011;5303;53.266;10.410;2023-11-19T08:18:37;18.27;;;5.73;;
10509;SDS011;5303;53.266;10.410;2023-11-19T08:21:06;20.93;;;5.93;;
10509;SDS011;5303;53.266;10.410;2023-11-19T08:23:31;19.37;;;5.03;;
10509;SDS011;5303;53.266;10.410;2023-11-19T08:25:56;19.27;;;5.83;;
10509;SDS011;5303;53.266;10.410;2023-11-19T08:28:22;17.07;;;5.50;;
10509;SDS011;5303;53.266;10.410;2023-11-19T08:30:47;25.03;;;5.57;;
10509;SDS011;5303;53.266;10.410;2023-11-19T08:33:12;18.60;;;5.30;;
10509;SDS011;5303;53.266;10.410;2023-11-19T08:35:38;21.23;;;5.93;;
10509;SDS011;5303;53.266;10.410;2023-11-19T08:38:03;19.73;;;5.77;;
10509;SDS011;5303;53.266;10.410;2023-11-19T08:40:28;24.30;;;6.40;;
10509;SDS011;5303;53.266;10.410;2023-11-19T08:42:56;21.87;;;6.47;;
10509;SDS011;5303;53.266;10.410;2023-11-19T08:45:22;28.43;;;5.97;;
10509;SDS011;5303;53.266;10.410;2023-11-19T08:47:47;25.93;;;6.77;;
10509;SDS011;5303;53.266;10.410;2023-11-19T08:50:13;21.60;;;6.47;;
10509;SDS011;5303;53.266;10.410;2023-11-19T08:52:38;21.20;;;6.30;;
10509;SDS011;5303;53.266;10.410;2023-11-19T08:55:03;23.07;;;6.37;;
10509;SDS011;5303;53.266;10.410;2023-11-19T08:57:30;17.57;;;6.10;;
10509;SDS011;5303;53.266;10.410;2023-11-19T08:59:56;22.70;;;6.03;;
10509;SDS011;5303;53.266;10.410;2023-11-19T09:02:21;21.27;;;6.10;;
10509;SDS011;5303;53.266;10.410;2023-11-19T09:04:46;22.97;;;6.50;;
10509;SDS011;5303;53.266;10.410;2023-11-19T09:07:12;21.93;;;5.53;;
10509;SDS011;5303;53.266;10.410;2023-11-19T09:09:37;19.40;;;5.33;;
10509;SDS011;5303;53.266;10.410;2023-11-19T09:12:03;20.03;;;5.77;;
10509;SDS011;5303;53.266;10.410;2023-11-19T09:14:31;21.57;;;6.20;;
10509;SDS011;5303;53.266;10.410;2023-11-19T09:16:56;18.47;;;5.83;;
10509;SDS011;5303;53.266;10.410;2023-11-19T09:19:22;21.03;;;5.70;;
10509;SDS011;5303;53.266;10.410;2023-11-19T09:21:48;23.90;;;6.07;;
10509;SDS011;5303;53.266;10.410;2023-11-19T09:24:14;24.17;;;6.40;;
10509;SDS011;5303;53.266;10.410;2023-11-19T09:26:39;28.53;;;7.03;;
10509;SDS011;5303;53.266;10.410;2023-11-19T09:29:06;24.73;;;6.30;;
10509;SDS011;5303;53.266;10.410;2023-11-19T09:31:32;25.47;;;6.90;;
10509;SDS011;5303;53.266;10.410;2023-11-19T09:33:58;20.97;;;6.07;;
10509;SDS011;5303;53.266;10.410;2023-11-19T09:36:23;27.37;;;7.10;;
10509;SDS011;5303;53.266;10.410;2023-11-19T09:38:48;29.23;;;6.73;;
10509;SDS011;5303;53.266;10.410;2023-11-19T09:41:13;27.00;;;6.40;;
10509;SDS011;5303;53.266;10.410;2023-11-19T09:43:40;24.17;;;5.37;;
10509;SDS011;5303;53.266;10.410;2023-11-19T09:46:07;20.67;;;6.27;;
10509;SDS011;5303;53.266;10.410;2023-11-19T09:48:37;25.93;;;6.43;;
10509;SDS011;5303;53.266;10.410;2023-11-19T09:51:03;26.53;;;6.17;;
10509;SDS011;5303;53.266;10.410;2023-11-19T09:53:29;25.63;;;6.50;;
10509;SDS011;5303;53.266;10.410;2023-11-19T09:55:55;21.23;;;6.00;;
10509;SDS011;5303;53.266;10.410;2023-11-19T09:58:21;23.90;;;6.10;;
10509;SDS011;5303;53.266;10.410;2023-11-19T10:00:47;20.87;;;6.00;;
10509;SDS011;5303;53.266;10.410;2023-11-19T10:03:13;20.77;;;5.80;;
10509;SDS011;5303;53.266;10.410;2023-11-19T10:05:39;21.00;;;6.00;;
10509;SDS011;5303;53.266;10.410;2023-11-19T10:08:05;23.50;;;6.33;;
10509;SDS011;5303;53.266;10.410;2023-11-19T10:10:30;22.43;;;6.03;;
10509;SDS011;5303;53.266;10.410;2023-11-19T10:12:56;27.83;;;6.00;;
10509;SDS011;5303;53.266;10.410;2023-11-19T10:15:22;24.90;;;6.23;;
10509;SDS011;5303;53.266;10.410;2023-11-19T10:17:50;27.33;;;6.10;;
10509;SDS011;5303;53.266;10.410;2023-11-19T10:20:16;22.80;;;6.07;;
10509;SDS011;5303;53.266;10.410;2023-11-19T10:22:41;27.00;;;6.53;;
10509;SDS011;5303;53.266;10.410;2023-11-19T10:25:22;28.07;;;6.70;;
10509;SDS011;5303;53.266;10.410;2023-11-19T10:27:50;27.73;;;5.83;;
10509;SDS011;5303;53.266;10.410;2023-11-19T10:30:22;27.17;;;6.17;;
10509;SDS011;5303;53.266;10.410;2023-11-19T10:35:54;25.57;;;6.23;;
10509;SDS011;5303;53.266;10.410;2023-11-19T10:38:19;19.83;;;6.07;;
10509;SDS011;5303;53.266;10.410;2023-11-19T10:40:44;24.67;;;6.40;;
10509;SDS011;5303;53.266;10.410;2023-11-19T10:43:10;28.40;;;6.40;;
10509;SDS011;5303;53.266;10.410;2023-11-19T10:45:36;24.37;;;6.73;;
10509;SDS011;5303;53.266;10.410;2023-11-19T10:48:02;27.60;;;7.20;;
10509;SDS011;5303;53.266;10.410;2023-11-19T10:50:31;24.00;;;6.03;;
10509;SDS011;5303;53.266;10.410;2023-11-19T10:53:05;23.03;;;5.97;;
10509;SDS011;5303;53.266;10.410;2023-11-19T10:55:34;29.37;;;6.47;;
10509;SDS011;5303;53.266;10.410;2023-11-19T10:58:04;24.03;;;6.20;;
10509;SDS011;5303;53.266;10.410;2023-11-19T11:00:34;20.00;;;6.23;;
10509;SDS011;5303;53.266;10.410;2023-11-19T11:03:22;20.37;;;5.77;;
10509;SDS011;5303;53.266;10.410;2023-11-19T11:05:50;27.27;;;6.10;;
10509;SDS011;5303;53.266;10.410;2023-11-19T11:08:17;24.10;;;5.50;;
10509;SDS011;5303;53.266;10.410;2023-11-19T11:13:23;20.40;;;5.83;;
10509;SDS011;5303;53.266;10.410;2023-11-19T11:15:49;20.57;;;5.30;;
10509;SDS011;5303;53.266;10.410;2023-11-19T11:18:15;20.57;;;5.93;;
10509;SDS011;5303;53.266;10.410;2023-11-19T11:20:44;21.93;;;6.13;;
10509;SDS011;5303;53.266;10.410;2023-11-19T11:39:33;25.05;;;6.30;;
10509;SDS011;5303;53.266;10.410;2023-11-19T11:47:22;24.07;;;6.37;;
10509;SDS011;5303;53.266;10.410;2023-11-19T11:49:48;23.27;;;5.80;;
10509;SDS011;5303;53.266;10.410;2023-11-19T11:52:16;27.43;;;6.13;;
10509;SDS011;5303;53.266;10.410;2023-11-19T11:54:42;22.10;;;5.53;;
10509;SDS011;5303;53.266;10.410;2023-11-19T11:57:14;20.50;;;5.73;;
10509;SDS011;5303;53.266;10.410;2023-11-19T12:02:08;21.90;;;5.97;;
10509;SDS011;5303;53.266;10.410;2023-11-19T12:04:34;20.10;;;6.77;;
10509;SDS011;5303;53.266;10.410;2023-11-19T12:07:13;22.27;;;5.63;;
10509;SDS011;5303;53.266;10.410;2023-11-19T12:09:52;24.90;;;6.87;;
10509;SDS011;5303;53.266;10.410;2023-11-19T12:12:26;17.67;;;6.00;;
10509;SDS011;5303;53.266;10.410;2023-11-19T12:20:02;24.30;;;5.87;;
10509;SDS011;5303;53.266;10.410;2023-11-19T12:22:30;17.13;;;5.20;;
10509;SDS011;5303;53.266;10.410;2023-11-19T12:24:55;21.23;;;5.07;;
10509;SDS011;5303;53.266;10.410;2023-11-19T12:27:21;19.43;;;5.60;;
10509;SDS011;5303;53.266;10.410;2023-11-19T12:29:51;18.17;;;5.27;;
10509;SDS011;5303;53.266;10.410;2023-11-19T12:32:16;18.47;;;5.43;;
10509;SDS011;5303;53.266;10.410;2023-11-19T12:34:42;19.67;;;5.43;;
10509;SDS011;5303;53.266;10.410;2023-11-19T12:37:07;20.90;;;5.03;;
10509;SDS011;5303;53.266;10.410;2023-11-19T12:39:34;20.83;;;5.20;;
10509;SDS011;5303;53.266;10.410;2023-11-19T12:42:00;18.10;;;4.70;;
10509;SDS011;5303;53.266;10.410;2023-11-19T12:44:25;19.73;;;5.10;;
10509;SDS011;5303;53.266;10.410;2023-11-19T12:47:03;19.33;;;5.20;;
10509;SDS011;5303;53.266;10.410;2023-11-19T12:49:31;19.03;;;5.00;;
10509;SDS011;5303;53.266;10.410;2023-11-19T12:51:57;18.10;;;4.93;;
10509;SDS011;5303;53.266;10.410;2023-11-19T12:54:35;15.43;;;4.67;;
10509;SDS011;5303;53.266;10.410;2023-11-19T12:57:01;18.47;;;5.77;;
10509;SDS011;5303;53.266;10.410;2023-11-19T12:59:27;22.20;;;5.17;;
10509;SDS011;5303;53.266;10.410;2023-11-19T13:01:56;19.47;;;5.30;;
10509;SDS011;5303;53.266;10.410;2023-11-19T13:04:28;15.10;;;5.73;;
10509;SDS011;5303;53.266;10.410;2023-11-19T13:06:56;18.47;;;4.87;;
10509;SDS011;5303;53.266;10.410;2023-11-19T13:09:25;18.70;;;5.00;;
10509;SDS011;5303;53.266;10.410;2023-11-19T13:11:52;20.47;;;5.50;;
10509;SDS011;5303;53.266;10.410;2023-11-19T13:14:19;20.37;;;6.17;;
10509;SDS011;5303;53.266;10.410;2023-11-19T13:16:45;16.87;;;5.33;;
10509;SDS011;5303;53.266;10.410;2023-11-19T13:19:11;21.00;;;6.00;;
10509;SDS011;5303;53.266;10.410;2023-11-19T13:21:37;22.60;;;5.47;;
10509;SDS011;5303;53.266;10.410;2023-11-19T13:24:04;13.80;;;5.17;;
10509;SDS011;5303;53.266;10.410;2023-11-19T13:26:33;18.90;;;5.80;;
10509;SDS011;5303;53.266;10.410;2023-11-19T13:28:58;19.90;;;5.17;;
10509;SDS011;5303;53.266;10.410;2023-11-19T13:31:24;24.13;;;5.97;;
10509;SDS011;5303;53.266;10.410;2023-11-19T13:33:49;24.33;;;7.23;;
10509;SDS011;5303;53.266;10.410;2023-11-19T13:36:14;23.77;;;6.17;;
10509;SDS011;5303;53.266;10.410;2023-11-19T13:38:40;23.40;;;6.07;;
10509;SDS011;5303;53.266;10.410;2023-11-19T13:41:07;19.03;;;6.50;;
10509;SDS011;5303;53.266;10.410;2023-11-19T13:43:34;24.50;;;6.37;;
10509;SDS011;5303;53.266;10.410;2023-11-19T13:46:00;22.97;;;5.83;;
10509;SDS011;5303;53.266;10.410;2023-11-19T13:48:25;28.40;;;6.57;;
10509;SDS011;5303;53.266;10.410;2023-11-19T13:50:52;23.27;;;6.70;;
10509;SDS011;5303;53.266;10.410;2023-11-19T13:53:18;27.83;;;6.67;;
10509;SDS011;5303;53.266;10.410;2023-11-19T13:55:44;25.50;;;6.73;;
10509;SDS011;5303;53.266;10.410;2023-11-19T13:58:09;26.17;;;6.57;;
10509;SDS011;5303;53.266;10.410;2023-11-19T14:00:35;26.37;;;6.87;;
10509;SDS011;5303;53.266;10.410;2023-11-19T14:03:00;25.83;;;6.20;;
10509;SDS011;5303;53.266;10.410;2023-11-19T14:05:26;20.50;;;5.43;;
10509;SDS011;5303;53.266;10.410;2023-11-19T14:07:51;20.33;;;6.03;;
10509;SDS011;5303;53.266;10.410;2023-11-19T14:10:16;20.47;;;6.37;;
10509;SDS011;5303;53.266;10.410;2023-11-19T14:12:42;22.67;;;6.50;;
10509;SDS011;5303;53.266;10.410;2023-11-19T14:15:08;22.13;;;6.53;;
10509;SDS011;5303;53.266;10.410;2023-11-19T14:17:35;24.13;;;6.73;;
10509;SDS011;5303;53.266;10.410;2023-11-19T14:20:01;24.40;;;6.53;;
10509;SDS011;5303;53.266;10.410;2023-11-19T14:22:28;21.17;;;6.17;;
10509;SDS011;5303;53.266;10.410;2023-11-19T14:24:55;22.70;;;5.50;;
10509;SDS011;5303;53.266;10.410;2023-11-19T14:27:20;21.80;;;5.90;;
10509;SDS011;5303;53.266;10.410;2023-11-19T14:29:47;21.30;;;5.53;;
10509;SDS011;5303;53.266;10.410;2023-11-19T14:32:12;23.73;;;5.37;;
10509;SDS011;5303;53.266;10.410;2023-11-19T14:34:38;23.80;;;5.77;;
10509;SDS011;5303;53.266;10.410;2023-11-19T14:37:05;19.80;;;5.40;;
10509;SDS011;5303;53.266;10.410;2023-11-19T14:39:31;22.27;;;5.57;;
10509;SDS011;5303;53.266;10.410;2023-11-19T14:41:57;18.23;;;5.67;;
10509;SDS011;5303;53.266;10.410;2023-11-19T14:44:26;15.17;;;5.57;;
10509;SDS011;5303;53.266;10.410;2023-11-19T14:46:51;19.47;;;5.63;;
10509;SDS011;5303;53.266;10.410;2023-11-19T14:49:17;17.63;;;5.80;;
10509;SDS011;5303;53.266;10.410;2023-11-19T14:51:42;15.83;;;5.37;;
10509;SDS011;5303;53.266;10.410;2023-11-19T14:54:07;14.93;;;4.07;;
10509;SDS011;5303;53.266;10.410;2023-11-19T14:56:33;16.90;;;5.30;;
10509;SDS011;5303;53.266;10.410;2023-11-19T14:58:58;19.73;;;5.13;;
10509;SDS011;5303;53.266;10.410;2023-11-19T15:01:24;14.33;;;4.67;;
10509;SDS011;5303;53.266;10.410;2023-11-19T15:03:49;12.40;;;4.53;;
10509;SDS011;5303;53.266;10.410;2023-11-19T15:06:15;14.13;;;4.10;;
10509;SDS011;5303;53.266;10.410;2023-11-19T15:08:40;13.57;;;4.33;;